createdAt,value
2023-01-03T00:00:20.598Z,1.07
2023-01-03T00:04:22.615Z,1.10
2023-01-03T00:08:24.593Z,1.10
2023-01-03T00:12:30.793Z,1.20
2023-01-03T00:16:34.560Z,1.00
2023-01-03T00:20:36.547Z,1.10
2023-01-03T00:24:38.514Z,0.93
2023-01-03T00:28:42.521Z,1.07
2023-01-03T00:32:44.388Z,1.13
2023-01-03T00:37:14.396Z,0.90
2023-01-03T00:41:18.443Z,0.90
2023-01-03T00:45:25.315Z,1.07
2023-01-03T00:49:28.026Z,1.47
2023-01-03T00:53:29.952Z,1.00
2023-01-03T00:58:04.120Z,1.30
2023-01-03T01:02:06.113Z,1.00
2023-01-03T01:06:31.113Z,1.27
2023-01-03T01:10:32.950Z,0.90
2023-01-03T01:14:35.667Z,1.10
2023-01-03T01:24:37.924Z,1.73
2023-01-03T01:29:07.960Z,0.97
2023-01-03T01:33:14.732Z,1.30
2023-01-03T01:37:16.525Z,1.23
2023-01-03T01:41:42.303Z,1.20
2023-01-03T01:45:46.400Z,1.10
2023-01-03T01:49:52.433Z,1.27
2023-01-03T01:53:59.807Z,1.10
2023-01-03T01:58:02.294Z,0.90
2023-01-03T02:02:23.340Z,1.00
2023-01-03T02:06:25.497Z,1.20
2023-01-03T02:11:11.810Z,2.30
2023-01-03T02:21:19.638Z,1.07
2023-01-03T02:25:49.295Z,1.03
2023-01-03T02:30:29.832Z,1.23
2023-01-03T02:35:08.637Z,1.00
2023-01-03T02:39:58.452Z,0.80
2023-01-03T02:44:23.752Z,1.50
2023-01-03T02:48:47.492Z,1.20
2023-01-03T02:52:52.904Z,1.07
2023-01-03T02:57:01.309Z,1.07
2023-01-03T03:01:18.283Z,0.90
2023-01-03T03:05:29.309Z,0.83
2023-01-03T03:09:31.214Z,0.80
2023-01-03T03:13:51.290Z,0.90
2023-01-03T03:17:57.856Z,0.97
2023-01-03T03:26:42.406Z,1.10
2023-01-03T03:30:47.496Z,0.80
2023-01-03T03:34:50.074Z,1.00
2023-01-03T03:38:52.256Z,0.80
2023-01-03T03:43:34.919Z,0.90
2023-01-03T03:48:14.998Z,0.90
2023-01-03T03:52:21.077Z,0.90
2023-01-03T03:56:28.392Z,1.00
2023-01-03T04:00:34.895Z,0.90
2023-01-03T04:04:43.021Z,0.90
2023-01-03T04:08:46.423Z,0.60
2023-01-03T04:13:16.554Z,0.90
2023-01-03T04:17:20.782Z,1.23
2023-01-03T04:21:22.714Z,0.80
2023-01-03T04:25:25.968Z,0.87
2023-01-03T04:29:27.858Z,0.80
2023-01-03T04:33:29.722Z,0.77
2023-01-03T04:37:32.759Z,0.90
2023-01-03T04:41:34.652Z,0.93
2023-01-03T04:45:36.663Z,0.80
2023-01-03T04:50:08.162Z,1.30
2023-01-03T04:54:20.352Z,1.17
2023-01-03T04:58:22.253Z,1.10
2023-01-03T05:02:24.257Z,1.10
2023-01-03T05:06:27.198Z,1.00
2023-01-03T05:10:29.070Z,1.20
2023-01-03T05:14:30.953Z,1.20
2023-01-03T05:18:36.204Z,1.30
2023-01-03T05:22:56.908Z,1.20
2023-01-03T05:27:05.171Z,1.33
2023-01-03T05:31:07.093Z,1.43
2023-01-03T05:35:16.269Z,1.67
2023-01-03T05:39:18.309Z,1.60
2023-01-03T05:43:28.536Z,1.90
2023-01-03T05:47:31.725Z,1.27
2023-01-03T05:51:34.801Z,1.37
2023-01-03T05:55:37.974Z,1.33
2023-01-03T05:59:39.963Z,1.30
2023-01-03T06:03:47.200Z,1.47
2023-01-03T06:07:49.122Z,1.33
2023-01-03T06:12:16.261Z,1.67
2023-01-03T06:21:51.322Z,1.20
2023-01-03T06:25:53.281Z,1.30
2023-01-03T06:29:56.521Z,0.90
2023-01-03T06:33:58.507Z,1.30
2023-01-03T06:38:00.417Z,1.10
2023-01-03T06:47:55.302Z,1.30
2023-01-03T06:52:20.116Z,1.40
2023-01-03T06:56:23.306Z,1.10
2023-01-03T07:01:24.522Z,1.17
2023-01-03T07:05:26.551Z,1.00
2023-01-03T07:09:28.550Z,1.27
2023-01-03T07:13:52.336Z,1.03
2023-01-03T07:17:55.732Z,0.90
2023-01-03T07:21:57.584Z,0.93
2023-01-03T07:26:01.537Z,1.17
2023-01-03T07:30:03.744Z,0.70
2023-01-03T07:34:05.619Z,0.97
2023-01-03T07:38:10.529Z,1.10
2023-01-03T07:47:22.534Z,0.90
2023-01-03T07:51:24.399Z,0.87
2023-01-03T07:55:26.423Z,1.10
2023-01-03T07:59:28.501Z,1.00
2023-01-03T08:03:30.447Z,1.03
2023-01-03T08:07:57.427Z,1.07
2023-01-03T08:12:20.121Z,0.70
2023-01-03T08:16:22.180Z,1.00
2023-01-03T08:20:24.253Z,0.90
2023-01-03T08:24:26.138Z,0.90
2023-01-03T08:28:29.306Z,1.10
2023-01-03T08:32:33.879Z,0.67
2023-01-03T08:36:43.352Z,0.73
2023-01-03T08:40:46.772Z,0.77
2023-01-03T08:44:58.237Z,0.60
2023-01-03T08:49:00.656Z,0.80
2023-01-03T08:53:11.798Z,0.77
2023-01-03T08:57:13.720Z,0.90
2023-01-03T09:01:16.120Z,0.80
2023-01-03T09:05:46.434Z,0.73
2023-01-03T09:09:48.425Z,0.70
2023-01-03T09:14:20.456Z,0.60
2023-01-03T09:18:22.351Z,0.60
2023-01-03T09:22:24.223Z,0.67
2023-01-03T09:26:26.270Z,0.90
2023-01-03T09:30:28.178Z,0.90
2023-01-03T09:34:35.254Z,0.63
2023-01-03T09:38:37.155Z,0.67
2023-01-03T09:42:57.972Z,0.60
2023-01-03T09:46:59.928Z,0.67
2023-01-03T09:51:23.998Z,0.70
2023-01-03T09:56:22.026Z,0.60
2023-01-03T10:00:58.930Z,0.90
2023-01-03T10:05:20.108Z,0.60
2023-01-03T10:09:44.358Z,0.70
2023-01-03T10:14:15.426Z,0.70
2023-01-03T10:18:38.853Z,0.70
2023-01-03T10:23:11.855Z,0.87
2023-01-03T10:27:21.269Z,0.67
2023-01-03T10:31:56.142Z,0.77
2023-01-03T10:35:58.490Z,0.73
2023-01-03T10:40:03.414Z,0.67
2023-01-03T10:44:31.700Z,0.60
2023-01-03T10:49:17.005Z,0.67
2023-01-03T10:53:09.017Z,0.60
2023-01-03T10:58:24.184Z,0.50
2023-01-03T11:02:26.288Z,0.90
2023-01-03T11:07:20.235Z,0.60
2023-01-03T11:11:43.173Z,0.73
2023-01-03T11:15:46.259Z,0.60
2023-01-03T11:19:49.805Z,0.90
2023-01-03T11:24:20.249Z,0.60
2023-01-03T11:28:33.099Z,0.50
2023-01-03T11:33:04.382Z,0.50
2023-01-03T11:38:11.032Z,0.60
2023-01-03T11:42:19.236Z,0.60
2023-01-03T11:46:40.907Z,0.60
2023-01-03T11:51:03.686Z,0.60
2023-01-03T12:01:22.064Z,0.50
2023-01-03T12:05:41.711Z,0.40
2023-01-03T12:10:11.295Z,0.30
2023-01-03T12:14:25.602Z,0.70
2023-01-03T12:18:27.531Z,0.43
2023-01-03T12:23:03.377Z,0.50
2023-01-03T12:27:34.395Z,0.40
2023-01-03T12:31:42.364Z,0.30
2023-01-03T12:36:03.363Z,0.60
2023-01-03T12:40:30.851Z,0.40
2023-01-03T12:44:38.511Z,0.50
2023-01-03T12:49:13.379Z,0.50
2023-01-03T12:53:33.915Z,0.60
2023-01-03T12:58:13.596Z,0.50
2023-01-03T13:02:40.635Z,0.40
2023-01-03T13:06:50.814Z,0.40
2023-01-03T13:10:56.927Z,0.43
2023-01-03T13:15:31.385Z,0.30
2023-01-03T13:19:37.460Z,0.40
2023-01-03T13:23:42.352Z,0.30
2023-01-03T13:28:14.486Z,0.30
2023-01-03T13:32:22.506Z,0.40
2023-01-03T13:36:25.167Z,0.30
2023-01-03T13:41:26.576Z,0.40
2023-01-03T13:45:31.746Z,0.30
2023-01-03T13:50:47.201Z,0.43
2023-01-03T13:55:03.618Z,0.30
2023-01-03T13:59:43.749Z,0.20
2023-01-03T14:04:10.605Z,0.53
2023-01-03T14:08:38.254Z,0.40
2023-01-03T14:12:58.756Z,0.40
2023-01-03T14:17:31.798Z,0.50
2023-01-03T14:21:57.988Z,0.43
2023-01-03T14:26:28.394Z,0.50
2023-01-03T14:30:34.339Z,0.40
2023-01-03T14:34:40.465Z,0.53
2023-01-03T14:38:59.739Z,0.30
2023-01-03T14:43:05.160Z,0.83
2023-01-03T14:47:44.781Z,0.60
2023-01-03T14:51:47.047Z,0.40
2023-01-03T14:55:55.271Z,0.70
2023-01-03T15:00:00.040Z,0.50
2023-01-03T15:04:02.166Z,0.50
2023-01-03T15:08:32.077Z,0.30
2023-01-03T15:12:37.381Z,0.70
2023-01-03T15:16:42.878Z,0.37
2023-01-03T15:26:38.640Z,0.50
2023-01-03T15:30:51.946Z,1.47
2023-01-03T15:34:53.985Z,0.87
2023-01-03T15:38:56.170Z,1.20
2023-01-03T15:43:22.008Z,1.13
2023-01-03T15:47:31.011Z,1.63
2023-01-03T15:51:32.971Z,1.90
2023-01-03T15:55:34.905Z,1.73
2023-01-03T15:59:43.287Z,1.60
2023-01-03T16:03:46.996Z,1.87
2023-01-03T16:07:49.000Z,1.00
2023-01-03T16:11:57.565Z,1.60
2023-01-03T16:16:01.029Z,0.90
2023-01-03T16:20:03.235Z,1.00
2023-01-03T16:24:16.012Z,1.00
2023-01-03T16:28:18.019Z,0.60
2023-01-03T16:32:33.088Z,0.70
2023-01-03T16:36:39.631Z,0.80
2023-01-03T16:40:45.704Z,0.90
2023-01-03T16:44:48.688Z,0.63
2023-01-03T16:49:54.113Z,0.53
2023-01-03T16:53:58.309Z,0.50
2023-01-03T16:58:00.604Z,0.80
2023-01-03T17:02:02.798Z,0.70
2023-01-03T17:06:05.151Z,1.00
2023-01-03T17:10:08.153Z,0.73
2023-01-03T17:14:27.519Z,0.90
2023-01-03T17:18:32.309Z,1.80
2023-01-03T17:22:34.304Z,5.87
2023-01-03T17:26:36.463Z,14.97
2023-01-03T17:30:38.423Z,18.67
2023-01-03T17:34:40.358Z,19.10
2023-01-03T17:39:38.348Z,12.40
2023-01-03T17:43:40.309Z,7.60
2023-01-03T17:48:03.587Z,8.13
2023-01-03T17:52:06.961Z,6.30
2023-01-03T17:57:00.084Z,4.20
2023-01-03T18:01:02.182Z,5.43
2023-01-03T18:05:26.631Z,4.93
2023-01-03T18:09:32.427Z,3.77
2023-01-03T18:14:26.096Z,4.83
2023-01-03T18:18:29.760Z,3.73
2023-01-03T18:22:32.193Z,2.87
2023-01-03T18:26:42.857Z,2.90
2023-01-03T18:30:44.830Z,2.93
2023-01-03T18:35:32.215Z,2.10
2023-01-03T18:39:38.625Z,2.00
2023-01-03T18:43:40.560Z,2.40
2023-01-03T18:48:37.226Z,2.30
2023-01-03T18:52:40.978Z,2.07
2023-01-03T18:56:43.866Z,1.70
2023-01-03T19:01:02.475Z,1.20
2023-01-03T19:05:04.764Z,1.00
2023-01-03T19:09:07.095Z,1.20
2023-01-03T19:18:23.296Z,1.70
2023-01-03T19:22:30.043Z,1.00
2023-01-03T19:26:38.709Z,1.30
2023-01-03T19:30:46.577Z,1.40
2023-01-03T19:35:29.228Z,1.10
2023-01-03T19:39:37.098Z,1.43
2023-01-03T19:43:39.803Z,1.00
2023-01-03T19:47:41.694Z,1.20
2023-01-03T19:51:49.900Z,0.97
2023-01-03T19:55:55.274Z,1.10
2023-01-03T20:00:00.927Z,1.07
2023-01-03T20:04:03.063Z,0.97
2023-01-03T20:08:13.407Z,1.20
2023-01-03T20:12:21.619Z,0.80
2023-01-03T20:16:24.104Z,0.80
2023-01-03T20:20:30.868Z,0.70
2023-01-03T20:24:39.413Z,0.87
2023-01-03T20:28:41.271Z,0.93
2023-01-03T20:32:43.629Z,1.30
2023-01-03T20:37:35.856Z,0.83
2023-01-03T20:41:37.836Z,1.43
2023-01-03T20:45:45.339Z,1.17
2023-01-03T20:49:47.309Z,1.30
2023-01-03T20:53:54.082Z,1.40
2023-01-03T20:57:57.871Z,0.87
2023-01-03T21:01:59.987Z,1.30
2023-01-03T21:06:04.169Z,1.03
2023-01-03T21:10:06.463Z,1.50
2023-01-03T21:14:08.554Z,1.47
2023-01-03T21:18:17.369Z,1.23
2023-01-03T21:22:20.510Z,1.33
2023-01-03T21:26:22.464Z,1.80
2023-01-03T21:30:27.201Z,1.30
2023-01-03T21:34:30.768Z,1.30
2023-01-03T21:38:32.704Z,1.63
2023-01-03T21:43:05.095Z,1.70
2023-01-03T21:47:08.772Z,2.23
2023-01-03T21:51:12.359Z,2.00
2023-01-03T21:55:14.269Z,3.20
2023-01-03T21:59:20.605Z,3.80
2023-01-03T22:08:19.131Z,3.30
2023-01-03T22:12:22.237Z,3.33
2023-01-03T22:16:24.455Z,3.30
2023-01-03T22:20:38.052Z,3.47
2023-01-03T22:24:40.613Z,4.10
2023-01-03T22:28:46.734Z,3.40
2023-01-03T22:32:48.952Z,3.80
2023-01-03T22:36:50.906Z,3.20
2023-01-03T22:40:52.767Z,3.57
2023-01-03T22:44:54.880Z,3.87
2023-01-03T22:48:56.817Z,3.97
2023-01-03T22:53:24.403Z,3.83
2023-01-03T22:57:26.403Z,3.43
2023-01-03T23:01:28.640Z,3.37
2023-01-03T23:05:31.769Z,4.03
2023-01-03T23:09:33.710Z,4.03
2023-01-03T23:14:25.966Z,3.50
2023-01-03T23:18:28.017Z,3.83
2023-01-03T23:23:25.523Z,2.97
2023-01-03T23:27:27.549Z,3.57
2023-01-03T23:31:30.711Z,3.00
2023-01-03T23:35:33.640Z,3.87
2023-01-03T23:39:35.640Z,3.27
2023-01-03T23:43:43.087Z,3.93
2023-01-03T23:47:45.052Z,3.73
2023-01-03T23:51:48.219Z,3.50
2023-01-03T23:55:50.246Z,3.73
2023-01-03T23:59:53.376Z,3.20
